sensor_id;sensor_type;location;lat;lon;timestamp;P1;durP1;ratioP1;P2;durP2;ratioP2
45114;SDS011;30877;43.706;10.780;2023-05-10T00:09:03;4.45;;;3.10;;
45114;SDS011;30877;43.706;10.780;2023-05-10T00:11:31;4.57;;;2.85;;
45114;SDS011;30877;43.706;10.780;2023-05-10T00:14:01;3.40;;;2.75;;
45114;SDS011;30877;43.706;10.780;2023-05-10T00:16:31;3.72;;;2.92;;
45114;SDS011;30877;43.706;10.780;2023-05-10T00:19:01;3.50;;;3.20;;
45114;SDS011;30877;43.706;10.780;2023-05-10T00:21:30;4.28;;;3.40;;
45114;SDS011;30877;43.706;10.780;2023-05-10T00:24:00;3.47;;;3.05;;
45114;SDS011;30877;43.706;10.780;2023-05-10T00:26:30;4.32;;;2.70;;
45114;SDS011;30877;43.706;10.780;2023-05-10T00:28:59;4.20;;;3.05;;
45114;SDS011;30877;43.706;10.780;2023-05-10T00:31:30;4.32;;;3.70;;
45114;SDS011;30877;43.706;10.780;2023-05-10T00:33:59;4.47;;;3.42;;
45114;SDS011;30877;43.706;10.780;2023-05-10T00:36:28;5.80;;;3.35;;
45114;SDS011;30877;43.706;10.780;2023-05-10T00:38:57;4.35;;;3.28;;
45114;SDS011;30877;43.706;10.780;2023-05-10T00:41:26;4.65;;;2.70;;
45114;SDS011;30877;43.706;10.780;2023-05-10T00:43:55;4.32;;;3.20;;
45114;SDS011;30877;43.706;10.780;2023-05-10T00:46:24;4.00;;;3.08;;
45114;SDS011;30877;43.706;10.780;2023-05-10T00:48:55;4.80;;;3.30;;
45114;SDS011;30877;43.706;10.780;2023-05-10T00:51:24;3.58;;;3.25;;
45114;SDS011;30877;43.706;10.780;2023-05-10T00:53:53;4.20;;;3.58;;
45114;SDS011;30877;43.706;10.780;2023-05-10T00:56:23;3.20;;;2.90;;
45114;SDS011;30877;43.706;10.780;2023-05-10T00:58:53;3.70;;;2.85;;
45114;SDS011;30877;43.706;10.780;2023-05-10T01:01:22;4.70;;;3.53;;
45114;SDS011;30877;43.706;10.780;2023-05-10T01:03:51;3.85;;;3.10;;
45114;SDS011;30877;43.706;10.780;2023-05-10T01:06:24;5.28;;;3.67;;
45114;SDS011;30877;43.706;10.780;2023-05-10T01:21:29;4.03;;;3.25;;
45114;SDS011;30877;43.706;10.780;2023-05-10T01:27:26;3.72;;;2.95;;
45114;SDS011;30877;43.706;10.780;2023-05-10T01:33:20;3.97;;;3.20;;
45114;SDS011;30877;43.706;10.780;2023-05-10T01:35:55;3.80;;;3.13;;
45114;SDS011;30877;43.706;10.780;2023-05-10T01:41:03;3.08;;;2.70;;
45114;SDS011;30877;43.706;10.780;2023-05-10T01:43:42;5.30;;;3.20;;
45114;SDS011;30877;43.706;10.780;2023-05-10T01:46:16;3.92;;;2.70;;
45114;SDS011;30877;43.706;10.780;2023-05-10T01:48:51;6.78;;;3.13;;
45114;SDS011;30877;43.706;10.780;2023-05-10T01:51:23;4.15;;;2.60;;
45114;SDS011;30877;43.706;10.780;2023-05-10T01:53:54;2.72;;;2.40;;
45114;SDS011;30877;43.706;10.780;2023-05-10T01:56:26;2.97;;;2.60;;
45114;SDS011;30877;43.706;10.780;2023-05-10T01:58:58;2.53;;;2.33;;
45114;SDS011;30877;43.706;10.780;2023-05-10T02:01:31;2.83;;;2.42;;
45114;SDS011;30877;43.706;10.780;2023-05-10T02:04:02;3.35;;;2.40;;
45114;SDS011;30877;43.706;10.780;2023-05-10T02:06:31;2.53;;;1.98;;
45114;SDS011;30877;43.706;10.780;2023-05-10T02:09:01;2.75;;;2.13;;
45114;SDS011;30877;43.706;10.780;2023-05-10T02:11:30;3.33;;;2.30;;
45114;SDS011;30877;43.706;10.780;2023-05-10T02:13:59;2.35;;;1.55;;
45114;SDS011;30877;43.706;10.780;2023-05-10T02:16:29;2.50;;;1.77;;
45114;SDS011;30877;43.706;10.780;2023-05-10T02:18:59;2.17;;;1.90;;
45114;SDS011;30877;43.706;10.780;2023-05-10T02:21:31;3.03;;;2.17;;
45114;SDS011;30877;43.706;10.780;2023-05-10T02:24:02;2.83;;;2.03;;
45114;SDS011;30877;43.706;10.780;2023-05-10T03:03:36;2.70;;;1.58;;
45114;SDS011;30877;43.706;10.780;2023-05-10T03:06:05;2.58;;;1.50;;
45114;SDS011;30877;43.706;10.780;2023-05-10T03:08:33;1.80;;;1.38;;
45114;SDS011;30877;43.706;10.780;2023-05-10T03:11:09;2.00;;;1.70;;
45114;SDS011;30877;43.706;10.780;2023-05-10T03:14:01;2.33;;;1.63;;
45114;SDS011;30877;43.706;10.780;2023-05-10T03:16:41;2.17;;;1.70;;
45114;SDS011;30877;43.706;10.780;2023-05-10T03:19:17;2.05;;;1.52;;
45114;SDS011;30877;43.706;10.780;2023-05-10T03:21:53;2.33;;;1.63;;
45114;SDS011;30877;43.706;10.780;2023-05-10T03:24:31;3.08;;;1.88;;
45114;SDS011;30877;43.706;10.780;2023-05-10T04:14:09;1.98;;;1.88;;
45114;SDS011;30877;43.706;10.780;2023-05-10T04:16:38;2.90;;;2.38;;
45114;SDS011;30877;43.706;10.780;2023-05-10T04:19:08;2.75;;;2.00;;
45114;SDS011;30877;43.706;10.780;2023-05-10T04:21:36;3.05;;;2.63;;
45114;SDS011;30877;43.706;10.780;2023-05-10T04:24:05;2.33;;;2.03;;
45114;SDS011;30877;43.706;10.780;2023-05-10T04:26:35;2.42;;;1.98;;
45114;SDS011;30877;43.706;10.780;2023-05-10T04:29:07;3.00;;;2.20;;
45114;SDS011;30877;43.706;10.780;2023-05-10T04:31:36;2.75;;;2.10;;
45114;SDS011;30877;43.706;10.780;2023-05-10T04:34:04;2.50;;;2.10;;
45114;SDS011;30877;43.706;10.780;2023-05-10T04:36:32;2.72;;;2.10;;
45114;SDS011;30877;43.706;10.780;2023-05-10T04:39:02;1.73;;;1.55;;
45114;SDS011;30877;43.706;10.780;2023-05-10T04:41:31;2.63;;;1.80;;
45114;SDS011;30877;43.706;10.780;2023-05-10T04:43:59;2.17;;;1.88;;
45114;SDS011;30877;43.706;10.780;2023-05-10T04:54:48;1.75;;;1.33;;
45114;SDS011;30877;43.706;10.780;2023-05-10T04:57:16;2.25;;;1.40;;
45114;SDS011;30877;43.706;10.780;2023-05-10T04:59:43;1.30;;;1.20;;
45114;SDS011;30877;43.706;10.780;2023-05-10T05:02:14;1.90;;;1.50;;
45114;SDS011;30877;43.706;10.780;2023-05-10T05:04:41;1.75;;;1.20;;
45114;SDS011;30877;43.706;10.780;2023-05-10T05:07:09;2.10;;;1.30;;
45114;SDS011;30877;43.706;10.780;2023-05-10T05:09:37;1.98;;;1.77;;
45114;SDS011;30877;43.706;10.780;2023-05-10T05:12:07;1.60;;;1.17;;
45114;SDS011;30877;43.706;10.780;2023-05-10T05:14:35;1.30;;;0.82;;
45114;SDS011;30877;43.706;10.780;2023-05-10T05:17:03;2.00;;;1.17;;
45114;SDS011;30877;43.706;10.780;2023-05-10T05:19:37;2.55;;;1.30;;
45114;SDS011;30877;43.706;10.780;2023-05-10T05:22:06;2.83;;;1.13;;
45114;SDS011;30877;43.706;10.780;2023-05-10T05:24:35;1.17;;;0.98;;
45114;SDS011;30877;43.706;10.780;2023-05-10T05:27:07;2.25;;;1.17;;
45114;SDS011;30877;43.706;10.780;2023-05-10T05:29:35;1.40;;;1.20;;
45114;SDS011;30877;43.706;10.780;2023-05-10T05:32:03;2.10;;;0.90;;
45114;SDS011;30877;43.706;10.780;2023-05-10T05:34:32;2.25;;;0.82;;
45114;SDS011;30877;43.706;10.780;2023-05-10T05:37:00;2.65;;;0.82;;
45114;SDS011;30877;43.706;10.780;2023-05-10T05:39:28;2.15;;;0.95;;
45114;SDS011;30877;43.706;10.780;2023-05-10T05:41:56;1.35;;;1.00;;
45114;SDS011;30877;43.706;10.780;2023-05-10T05:44:26;1.27;;;0.85;;
45114;SDS011;30877;43.706;10.780;2023-05-10T05:46:55;1.95;;;1.30;;
45114;SDS011;30877;43.706;10.780;2023-05-10T05:49:23;3.20;;;1.75;;
45114;SDS011;30877;43.706;10.780;2023-05-10T05:51:51;1.85;;;1.17;;
45114;SDS011;30877;43.706;10.780;2023-05-10T05:54:19;3.42;;;1.88;;
45114;SDS011;30877;43.706;10.780;2023-05-10T05:56:48;3.25;;;1.88;;
45114;SDS011;30877;43.706;10.780;2023-05-10T05:59:16;2.53;;;1.67;;
45114;SDS011;30877;43.706;10.780;2023-05-10T06:01:45;2.05;;;1.70;;
45114;SDS011;30877;43.706;10.780;2023-05-10T06:04:14;3.05;;;1.50;;
45114;SDS011;30877;43.706;10.780;2023-05-10T06:06:42;2.47;;;1.77;;
45114;SDS011;30877;43.706;10.780;2023-05-10T06:09:10;2.53;;;1.30;;
45114;SDS011;30877;43.706;10.780;2023-05-10T06:11:39;1.60;;;1.40;;
45114;SDS011;30877;43.706;10.780;2023-05-10T06:14:07;1.75;;;1.48;;
45114;SDS011;30877;43.706;10.780;2023-05-10T06:16:36;2.92;;;1.40;;
45114;SDS011;30877;43.706;10.780;2023-05-10T06:19:05;1.15;;;1.02;;
45114;SDS011;30877;43.706;10.780;2023-05-10T06:21:34;1.50;;;1.25;;
45114;SDS011;30877;43.706;10.780;2023-05-10T06:24:02;1.88;;;1.15;;
45114;SDS011;30877;43.706;10.780;2023-05-10T06:26:30;2.63;;;1.20;;
45114;SDS011;30877;43.706;10.780;2023-05-10T06:28:58;2.92;;;1.40;;
45114;SDS011;30877;43.706;10.780;2023-05-10T06:31:26;1.23;;;0.90;;
45114;SDS011;30877;43.706;10.780;2023-05-10T06:33:55;2.53;;;1.52;;
45114;SDS011;30877;43.706;10.780;2023-05-10T06:36:24;2.33;;;1.10;;
45114;SDS011;30877;43.706;10.780;2023-05-10T06:38:53;2.38;;;1.10;;
45114;SDS011;30877;43.706;10.780;2023-05-10T06:41:22;2.15;;;1.00;;
45114;SDS011;30877;43.706;10.780;2023-05-10T06:43:50;2.28;;;1.10;;
45114;SDS011;30877;43.706;10.780;2023-05-10T06:46:18;1.17;;;0.90;;
45114;SDS011;30877;43.706;10.780;2023-05-10T06:48:47;1.27;;;1.17;;
45114;SDS011;30877;43.706;10.780;2023-05-10T06:51:15;2.50;;;1.20;;
45114;SDS011;30877;43.706;10.780;2023-05-10T06:53:47;2.85;;;1.23;;
45114;SDS011;30877;43.706;10.780;2023-05-10T06:56:15;1.45;;;1.35;;
45114;SDS011;30877;43.706;10.780;2023-05-10T06:58:43;1.95;;;1.20;;
45114;SDS011;30877;43.706;10.780;2023-05-10T07:01:11;1.45;;;1.35;;
45114;SDS011;30877;43.706;10.780;2023-05-10T07:03:39;2.35;;;1.20;;
45114;SDS011;30877;43.706;10.780;2023-05-10T07:06:07;2.20;;;1.42;;
45114;SDS011;30877;43.706;10.780;2023-05-10T07:08:57;2.15;;;1.20;;
45114;SDS011;30877;43.706;10.780;2023-05-10T07:11:25;1.70;;;1.38;;
45114;SDS011;30877;43.706;10.780;2023-05-10T07:13:53;2.47;;;1.30;;
45114;SDS011;30877;43.706;10.780;2023-05-10T07:16:22;1.38;;;1.10;;
45114;SDS011;30877;43.706;10.780;2023-05-10T07:18:52;2.20;;;1.55;;
45114;SDS011;30877;43.706;10.780;2023-05-10T07:21:20;1.48;;;1.38;;
45114;SDS011;30877;43.706;10.780;2023-05-10T07:23:51;2.15;;;1.15;;
45114;SDS011;30877;43.706;10.780;2023-05-10T07:26:20;1.35;;;1.25;;
45114;SDS011;30877;43.706;10.780;2023-05-10T07:28:49;2.22;;;1.50;;
45114;SDS011;30877;43.706;10.780;2023-05-10T07:31:17;1.33;;;1.10;;
45114;SDS011;30877;43.706;10.780;2023-05-10T07:33:45;1.60;;;1.10;;
45114;SDS011;30877;43.706;10.780;2023-05-10T07:36:13;1.67;;;1.20;;
45114;SDS011;30877;43.706;10.780;2023-05-10T07:38:41;2.10;;;1.20;;
45114;SDS011;30877;43.706;10.780;2023-05-10T07:41:10;1.75;;;0.85;;
45114;SDS011;30877;43.706;10.780;2023-05-10T07:43:40;1.83;;;1.10;;
45114;SDS011;30877;43.706;10.780;2023-05-10T07:46:08;1.80;;;1.15;;
45114;SDS011;30877;43.706;10.780;2023-05-10T07:48:38;2.47;;;1.40;;
45114;SDS011;30877;43.706;10.780;2023-05-10T07:51:06;2.75;;;1.10;;
45114;SDS011;30877;43.706;10.780;2023-05-10T07:53:36;0.98;;;0.90;;
45114;SDS011;30877;43.706;10.780;2023-05-10T07:56:19;1.60;;;1.00;;
45114;SDS011;30877;43.706;10.780;2023-05-10T07:58:50;1.13;;;0.88;;
45114;SDS011;30877;43.706;10.780;2023-05-10T08:01:19;1.27;;;1.00;;
45114;SDS011;30877;43.706;10.780;2023-05-10T08:03:47;1.92;;;0.93;;
45114;SDS011;30877;43.706;10.780;2023-05-10T08:06:16;1.15;;;0.90;;
45114;SDS011;30877;43.706;10.780;2023-05-10T08:08:45;2.53;;;1.05;;
45114;SDS011;30877;43.706;10.780;2023-05-10T08:11:16;1.10;;;1.00;;
45114;SDS011;30877;43.706;10.780;2023-05-10T08:13:44;1.30;;;0.80;;
45114;SDS011;30877;43.706;10.780;2023-05-10T08:16:14;3.28;;;1.10;;
45114;SDS011;30877;43.706;10.780;2023-05-10T08:18:42;3.13;;;1.15;;
45114;SDS011;30877;43.706;10.780;2023-05-10T08:21:12;2.80;;;1.20;;
45114;SDS011;30877;43.706;10.780;2023-05-10T08:23:40;1.60;;;1.05;;
45114;SDS011;30877;43.706;10.780;2023-05-10T08:26:11;2.35;;;1.20;;
45114;SDS011;30877;43.706;10.780;2023-05-10T08:28:39;2.88;;;1.15;;
45114;SDS011;30877;43.706;10.780;2023-05-10T08:31:07;1.25;;;1.00;;
45114;SDS011;30877;43.706;10.780;2023-05-10T08:33:37;2.60;;;1.20;;
45114;SDS011;30877;43.706;10.780;2023-05-10T08:36:05;2.80;;;0.90;;
45114;SDS011;30877;43.706;10.780;2023-05-10T08:38:34;1.20;;;0.77;;
45114;SDS011;30877;43.706;10.780;2023-05-10T08:41:02;1.50;;;0.95;;
45114;SDS011;30877;43.706;10.780;2023-05-10T08:43:32;1.80;;;1.10;;
45114;SDS011;30877;43.706;10.780;2023-05-10T08:46:03;2.63;;;1.10;;
45114;SDS011;30877;43.706;10.780;2023-05-10T08:48:34;1.92;;;1.27;;
45114;SDS011;30877;43.706;10.780;2023-05-10T08:51:05;1.30;;;1.20;;
45114;SDS011;30877;43.706;10.780;2023-05-10T08:53:38;1.45;;;0.90;;
45114;SDS011;30877;43.706;10.780;2023-05-10T08:56:06;1.23;;;0.98;;
45114;SDS011;30877;43.706;10.780;2023-05-10T08:58:34;2.00;;;1.10;;
45114;SDS011;30877;43.706;10.780;2023-05-10T09:01:03;1.90;;;1.08;;
45114;SDS011;30877;43.706;10.780;2023-05-10T09:03:33;1.33;;;1.10;;
45114;SDS011;30877;43.706;10.780;2023-05-10T09:06:02;2.05;;;1.10;;
45114;SDS011;30877;43.706;10.780;2023-05-10T09:08:32;1.55;;;1.10;;
45114;SDS011;30877;43.706;10.780;2023-05-10T09:11:00;2.10;;;1.40;;
45114;SDS011;30877;43.706;10.780;2023-05-10T09:13:30;3.20;;;1.38;;
45114;SDS011;30877;43.706;10.780;2023-05-10T09:15:59;1.85;;;1.00;;
45114;SDS011;30877;43.706;10.780;2023-05-10T09:18:46;1.20;;;1.10;;
45114;SDS011;30877;43.706;10.780;2023-05-10T09:21:15;2.55;;;1.17;;
45114;SDS011;30877;43.706;10.780;2023-05-10T09:23:44;1.63;;;1.33;;
45114;SDS011;30877;43.706;10.780;2023-05-10T09:26:14;2.13;;;1.38;;
45114;SDS011;30877;43.706;10.780;2023-05-10T09:28:52;2.08;;;1.58;;
45114;SDS011;30877;43.706;10.780;2023-05-10T09:31:21;2.55;;;1.35;;
45114;SDS011;30877;43.706;10.780;2023-05-10T09:33:51;3.72;;;1.80;;
45114;SDS011;30877;43.706;10.780;2023-05-10T09:36:20;2.58;;;1.63;;
45114;SDS011;30877;43.706;10.780;2023-05-10T09:38:49;2.65;;;1.55;;
45114;SDS011;30877;43.706;10.780;2023-05-10T09:41:19;2.85;;;1.73;;
45114;SDS011;30877;43.706;10.780;2023-05-10T09:43:48;3.28;;;1.58;;
45114;SDS011;30877;43.706;10.780;2023-05-10T09:46:16;2.88;;;1.48;;
45114;SDS011;30877;43.706;10.780;2023-05-10T09:48:45;2.83;;;1.90;;
45114;SDS011;30877;43.706;10.780;2023-05-10T09:51:22;1.90;;;1.35;;
45114;SDS011;30877;43.706;10.780;2023-05-10T09:54:08;3.45;;;1.88;;
45114;SDS011;30877;43.706;10.780;2023-05-10T09:56:37;2.72;;;1.90;;
45114;SDS011;30877;43.706;10.780;2023-05-10T09:59:10;2.40;;;1.95;;
45114;SDS011;30877;43.706;10.780;2023-05-10T10:01:39;2.75;;;2.05;;
45114;SDS011;30877;43.706;10.780;2023-05-10T10:04:09;1.88;;;1.58;;
45114;SDS011;30877;43.706;10.780;2023-05-10T10:06:39;3.55;;;1.70;;
45114;SDS011;30877;43.706;10.780;2023-05-10T10:09:07;2.60;;;1.50;;
45114;SDS011;30877;43.706;10.780;2023-05-10T10:11:36;3.38;;;1.80;;
45114;SDS011;30877;43.706;10.780;2023-05-10T10:14:05;2.15;;;1.90;;
45114;SDS011;30877;43.706;10.780;2023-05-10T10:16:33;1.70;;;1.60;;
45114;SDS011;30877;43.706;10.780;2023-05-10T10:19:02;2.33;;;1.55;;
45114;SDS011;30877;43.706;10.780;2023-05-10T10:21:30;3.35;;;1.85;;
45114;SDS011;30877;43.706;10.780;2023-05-10T10:24:00;2.75;;;1.73;;
45114;SDS011;30877;43.706;10.780;2023-05-10T10:26:28;2.63;;;1.63;;
45114;SDS011;30877;43.706;10.780;2023-05-10T10:29:00;1.75;;;1.58;;
45114;SDS011;30877;43.706;10.780;2023-05-10T10:31:39;4.80;;;1.48;;
45114;SDS011;30877;43.706;10.780;2023-05-10T10:34:17;2.33;;;1.10;;
45114;SDS011;30877;43.706;10.780;2023-05-10T10:36:53;2.05;;;1.25;;
45114;SDS011;30877;43.706;10.780;2023-05-10T10:39:24;0.98;;;0.88;;
45114;SDS011;30877;43.706;10.780;2023-05-10T10:41:54;1.83;;;0.95;;
45114;SDS011;30877;43.706;10.780;2023-05-10T10:44:23;0.80;;;0.80;;
45114;SDS011;30877;43.706;10.780;2023-05-10T10:47:03;1.33;;;0.75;;
45114;SDS011;30877;43.706;10.780;2023-05-10T10:49:42;2.50;;;1.00;;
45114;SDS011;30877;43.706;10.780;2023-05-10T10:52:15;1.20;;;0.63;;
45114;SDS011;30877;43.706;10.780;2023-05-10T10:54:51;2.15;;;0.93;;
45114;SDS011;30877;43.706;10.780;2023-05-10T10:57:24;1.35;;;0.88;;
45114;SDS011;30877;43.706;10.780;2023-05-10T11:02:49;2.22;;;0.80;;
45114;SDS011;30877;43.706;10.780;2023-05-10T11:05:25;1.17;;;0.77;;
45114;SDS011;30877;43.706;10.780;2023-05-10T11:08:19;1.42;;;0.80;;
45114;SDS011;30877;43.706;10.780;2023-05-10T11:11:04;2.35;;;0.80;;
45114;SDS011;30877;43.706;10.780;2023-05-10T11:13:40;1.48;;;0.80;;
45114;SDS011;30877;43.706;10.780;2023-05-10T11:16:10;1.38;;;0.70;;
45114;SDS011;30877;43.706;10.780;2023-05-10T11:18:49;2.42;;;0.70;;
45114;SDS011;30877;43.706;10.780;2023-05-10T11:21:21;1.60;;;0.88;;
45114;SDS011;30877;43.706;10.780;2023-05-10T11:23:50;1.77;;;0.88;;
45114;SDS011;30877;43.706;10.780;2023-05-10T11:26:24;1.20;;;0.90;;
45114;SDS011;30877;43.706;10.780;2023-05-10T11:28:57;2.90;;;1.30;;
45114;SDS011;30877;43.706;10.780;2023-05-10T11:31:28;2.50;;;1.27;;
45114;SDS011;30877;43.706;10.780;2023-05-10T11:33:57;2.53;;;1.00;;
45114;SDS011;30877;43.706;10.780;2023-05-10T11:36:29;2.42;;;0.93;;
45114;SDS011;30877;43.706;10.780;2023-05-10T11:39:01;1.77;;;0.82;;
45114;SDS011;30877;43.706;10.780;2023-05-10T11:41:31;1.10;;;0.52;;
45114;SDS011;30877;43.706;10.780;2023-05-10T11:44:00;2.03;;;0.73;;
45114;SDS011;30877;43.706;10.780;2023-05-10T11:46:29;1.17;;;0.70;;
45114;SDS011;30877;43.706;10.780;2023-05-10T11:48:58;1.23;;;0.50;;
45114;SDS011;30877;43.706;10.780;2023-05-10T11:51:28;1.15;;;0.60;;
45114;SDS011;30877;43.706;10.780;2023-05-10T11:54:00;1.67;;;0.77;;
45114;SDS011;30877;43.706;10.780;2023-05-10T11:56:28;2.15;;;0.80;;
45114;SDS011;30877;43.706;10.780;2023-05-10T11:58:57;1.67;;;0.65;;
45114;SDS011;30877;43.706;10.780;2023-05-10T12:01:27;0.70;;;0.50;;
45114;SDS011;30877;43.706;10.780;2023-05-10T12:03:56;1.60;;;0.60;;
45114;SDS011;30877;43.706;10.780;2023-05-10T12:06:27;2.28;;;0.70;;
45114;SDS011;30877;43.706;10.780;2023-05-10T12:08:58;1.42;;;0.77;;
45114;SDS011;30877;43.706;10.780;2023-05-10T12:11:27;0.88;;;0.60;;
45114;SDS011;30877;43.706;10.780;2023-05-10T12:13:55;0.82;;;0.45;;
45114;SDS011;30877;43.706;10.780;2023-05-10T12:16:26;0.77;;;0.52;;
45114;SDS011;30877;43.706;10.780;2023-05-10T12:18:57;0.70;;;0.50;;
45114;SDS011;30877;43.706;10.780;2023-05-10T12:21:26;1.63;;;0.75;;
45114;SDS011;30877;43.706;10.780;2023-05-10T12:23:59;0.88;;;0.60;;
45114;SDS011;30877;43.706;10.780;2023-05-10T12:26:29;1.15;;;0.57;;
45114;SDS011;30877;43.706;10.780;2023-05-10T12:29:12;0.93;;;0.63;;
45114;SDS011;30877;43.706;10.780;2023-05-10T12:31:49;1.38;;;0.60;;
45114;SDS011;30877;43.706;10.780;2023-05-10T12:34:25;1.35;;;0.65;;
45114;SDS011;30877;43.706;10.780;2023-05-10T12:36:54;1.23;;;0.60;;
45114;SDS011;30877;43.706;10.780;2023-05-10T12:39:22;1.70;;;0.80;;
45114;SDS011;30877;43.706;10.780;2023-05-10T12:41:51;1.58;;;0.60;;
45114;SDS011;30877;43.706;10.780;2023-05-10T12:44:21;1.95;;;0.73;;
45114;SDS011;30877;43.706;10.780;2023-05-10T12:46:49;1.42;;;0.70;;
45114;SDS011;30877;43.706;10.780;2023-05-10T12:49:17;1.52;;;0.52;;
45114;SDS011;30877;43.706;10.780;2023-05-10T12:51:46;2.53;;;0.60;;
45114;SDS011;30877;43.706;10.780;2023-05-10T12:54:14;1.85;;;0.30;;
45114;SDS011;30877;43.706;10.780;2023-05-10T12:56:43;1.23;;;0.38;;
45114;SDS011;30877;43.706;10.780;2023-05-10T12:59:11;0.68;;;0.20;;
45114;SDS011;30877;43.706;10.780;2023-05-10T13:01:41;0.60;;;0.20;;
45114;SDS011;30877;43.706;10.780;2023-05-10T13:04:09;1.65;;;0.32;;
45114;SDS011;30877;43.706;10.780;2023-05-10T13:06:37;2.63;;;0.50;;
45114;SDS011;30877;43.706;10.780;2023-05-10T13:09:05;0.52;;;0.35;;
45114;SDS011;30877;43.706;10.780;2023-05-10T13:11:33;0.50;;;0.30;;
45114;SDS011;30877;43.706;10.780;2023-05-10T13:14:02;2.97;;;0.75;;
45114;SDS011;30877;43.706;10.780;2023-05-10T13:16:30;1.30;;;0.40;;
45114;SDS011;30877;43.706;10.780;2023-05-10T13:19:00;1.67;;;0.30;;
45114;SDS011;30877;43.706;10.780;2023-05-10T13:21:28;1.65;;;0.35;;
45114;SDS011;30877;43.706;10.780;2023-05-10T13:23:57;1.10;;;0.10;;
45114;SDS011;30877;43.706;10.780;2023-05-10T13:26:27;0.68;;;0.30;;
45114;SDS011;30877;43.706;10.780;2023-05-10T13:28:56;0.65;;;0.20;;
45114;SDS011;30877;43.706;10.780;2023-05-10T13:31:24;2.50;;;0.30;;
45114;SDS011;30877;43.706;10.780;2023-05-10T13:33:52;0.60;;;0.20;;
45114;SDS011;30877;43.706;10.780;2023-05-10T13:36:22;1.65;;;0.40;;
45114;SDS011;30877;43.706;10.780;2023-05-10T13:38:51;0.47;;;0.28;;
45114;SDS011;30877;43.706;10.780;2023-05-10T13:41:19;1.17;;;0.20;;
45114;SDS011;30877;43.706;10.780;2023-05-10T13:43:48;1.60;;;0.20;;
45114;SDS011;30877;43.706;10.780;2023-05-10T13:46:16;0.95;;;0.20;;
45114;SDS011;30877;43.706;10.780;2023-05-10T13:48:44;0.63;;;0.13;;
45114;SDS011;30877;43.706;10.780;2023-05-10T13:51:12;0.40;;;0.10;;
45114;SDS011;30877;43.706;10.780;2023-05-10T13:53:42;1.20;;;0.10;;
45114;SDS011;30877;43.706;10.780;2023-05-10T13:56:10;0.17;;;0.10;;
45114;SDS011;30877;43.706;10.780;2023-05-10T13:58:39;1.02;;;0.30;;
45114;SDS011;30877;43.706;10.780;2023-05-10T14:01:07;1.50;;;0.25;;
45114;SDS011;30877;43.706;10.780;2023-05-10T14:03:35;0.77;;;0.25;;
45114;SDS011;30877;43.706;10.780;2023-05-10T14:06:04;0.90;;;0.17;;
45114;SDS011;30877;43.706;10.780;2023-05-10T14:08:35;1.73;;;0.30;;
45114;SDS011;30877;43.706;10.780;2023-05-10T14:11:05;0.70;;;0.20;;
45114;SDS011;30877;43.706;10.780;2023-05-10T14:13:33;3.30;;;0.40;;
45114;SDS011;30877;43.706;10.780;2023-05-10T14:16:01;0.82;;;0.17;;
45114;SDS011;30877;43.706;10.780;2023-05-10T14:18:30;0.50;;;0.20;;
45114;SDS011;30877;43.706;10.780;2023-05-10T14:20:58;1.58;;;0.30;;
45114;SDS011;30877;43.706;10.780;2023-05-10T14:23:26;2.42;;;0.30;;
45114;SDS011;30877;43.706;10.780;2023-05-10T14:25:55;1.58;;;0.40;;
45114;SDS011;30877;43.706;10.780;2023-05-10T14:28:25;0.82;;;0.50;;
45114;SDS011;30877;43.706;10.780;2023-05-10T14:30:53;1.75;;;0.45;;
45114;SDS011;30877;43.706;10.780;2023-05-10T14:33:22;0.88;;;0.30;;
45114;SDS011;30877;43.706;10.780;2023-05-10T14:35:50;0.40;;;0.30;;
45114;SDS011;30877;43.706;10.780;2023-05-10T14:38:18;1.75;;;0.52;;
45114;SDS011;30877;43.706;10.780;2023-05-10T14:40:46;0.70;;;0.30;;
45114;SDS011;30877;43.706;10.780;2023-05-10T14:43:14;1.35;;;0.30;;
45114;SDS011;30877;43.706;10.780;2023-05-10T14:45:44;0.38;;;0.22;;
45114;SDS011;30877;43.706;10.780;2023-05-10T14:48:12;0.22;;;0.10;;
45114;SDS011;30877;43.706;10.780;2023-05-10T14:50:43;0.08;;;0.08;;
45114;SDS011;30877;43.706;10.780;2023-05-10T14:53:13;0.00;;;0.00;;
45114;SDS011;30877;43.706;10.780;2023-05-10T14:55:41;1.70;;;0.10;;
45114;SDS011;30877;43.706;10.780;2023-05-10T14:58:09;0.10;;;0.08;;
45114;SDS011;30877;43.706;10.780;2023-05-10T15:00:37;0.63;;;0.10;;
45114;SDS011;30877;43.706;10.780;2023-05-10T15:03:07;0.05;;;0.00;;
45114;SDS011;30877;43.706;10.780;2023-05-10T15:05:36;1.63;;;0.10;;
45114;SDS011;30877;43.706;10.780;2023-05-10T15:08:04;0.30;;;0.15;;
45114;SDS011;30877;43.706;10.780;2023-05-10T15:10:33;0.88;;;0.10;;
45114;SDS011;30877;43.706;10.780;2023-05-10T15:13:01;0.08;;;0.00;;
45114;SDS011;30877;43.706;10.780;2023-05-10T15:15:30;0.30;;;0.10;;
45114;SDS011;30877;43.706;10.780;2023-05-10T15:17:58;0.35;;;0.10;;
45114;SDS011;30877;43.706;10.780;2023-05-10T15:20:28;0.10;;;0.00;;
45114;SDS011;30877;43.706;10.780;2023-05-10T15:22:56;0.15;;;0.00;;
45114;SDS011;30877;43.706;10.780;2023-05-10T15:25:24;0.28;;;0.00;;
45114;SDS011;30877;43.706;10.780;2023-05-10T15:27:52;0.40;;;0.10;;
45114;SDS011;30877;43.706;10.780;2023-05-10T15:30:21;1.33;;;0.55;;
45114;SDS011;30877;43.706;10.780;2023-05-10T15:32:49;1.65;;;0.00;;
45114;SDS011;30877;43.706;10.780;2023-05-10T15:35:17;0.38;;;0.00;;
45114;SDS011;30877;43.706;10.780;2023-05-10T15:37:47;0.00;;;0.00;;
45114;SDS011;30877;43.706;10.780;2023-05-10T15:40:16;0.13;;;0.00;;
45114;SDS011;30877;43.706;10.780;2023-05-10T15:42:44;0.32;;;0.00;;
45114;SDS011;30877;43.706;10.780;2023-05-10T15:45:12;0.47;;;0.10;;
45114;SDS011;30877;43.706;10.780;2023-05-10T15:47:42;0.35;;;0.03;;
45114;SDS011;30877;43.706;10.780;2023-05-10T15:50:11;3.65;;;0.17;;
45114;SDS011;30877;43.706;10.780;2023-05-10T15:52:39;0.45;;;0.08;;
45114;SDS011;30877;43.706;10.780;2023-05-10T15:55:10;0.57;;;0.00;;
45114;SDS011;30877;43.706;10.780;2023-05-10T15:57:42;0.35;;;0.10;;
45114;SDS011;30877;43.706;10.780;2023-05-10T16:00:11;0.93;;;0.10;;
45114;SDS011;30877;43.706;10.780;2023-05-10T16:02:40;0.60;;;0.17;;
45114;SDS011;30877;43.706;10.780;2023-05-10T16:05:08;0.10;;;0.03;;
45114;SDS011;30877;43.706;10.780;2023-05-10T16:07:37;0.08;;;0.03;;
45114;SDS011;30877;43.706;10.780;2023-05-10T16:10:07;2.40;;;0.10;;
45114;SDS011;30877;43.706;10.780;2023-05-10T16:12:38;0.93;;;0.10;;
45114;SDS011;30877;43.706;10.780;2023-05-10T16:15:07;1.58;;;0.30;;
45114;SDS011;30877;43.706;10.780;2023-05-10T16:17:35;0.82;;;0.15;;
45114;SDS011;30877;43.706;10.780;2023-05-10T16:20:04;0.82;;;0.10;;
45114;SDS011;30877;43.706;10.780;2023-05-10T16:22:33;0.20;;;0.10;;
45114;SDS011;30877;43.706;10.780;2023-05-10T16:25:02;0.95;;;0.43;;
45114;SDS011;30877;43.706;10.780;2023-05-10T16:27:32;1.17;;;0.20;;
45114;SDS011;30877;43.706;10.780;2023-05-10T16:30:01;0.40;;;0.10;;
45114;SDS011;30877;43.706;10.780;2023-05-10T16:32:29;0.35;;;0.20;;
45114;SDS011;30877;43.706;10.780;2023-05-10T16:34:57;1.33;;;0.38;;
45114;SDS011;30877;43.706;10.780;2023-05-10T16:37:26;1.38;;;0.50;;
45114;SDS011;30877;43.706;10.780;2023-05-10T16:39:54;0.63;;;0.17;;
45114;SDS011;30877;43.706;10.780;2023-05-10T16:42:23;0.17;;;0.10;;
45114;SDS011;30877;43.706;10.780;2023-05-10T16:44:54;1.98;;;0.22;;
45114;SDS011;30877;43.706;10.780;2023-05-10T16:47:22;1.63;;;0.10;;
45114;SDS011;30877;43.706;10.780;2023-05-10T16:49:52;0.30;;;0.10;;
45114;SDS011;30877;43.706;10.780;2023-05-10T16:52:20;0.32;;;0.20;;
45114;SDS011;30877;43.706;10.780;2023-05-10T16:54:50;0.35;;;0.10;;